• Join FlightAware (Why Join?)
  • Login
  • US Flag 
01:25PM EDT


 

Airport Tracker/Info


-or-


 

Live Flight TrackerFlight Track Log ✈ N233PC ✈ 30-Jun-2013 ✈ KBCT - MYEF / GGT

Flight Track Log - Related Links

Times and Time Zones

All times are in EDT time to prevent confusion due to time zone crossing. See the N233PC flight status page for this flight to view local times or setup timezone preferences in your user account.

Time Position Orientation Groundspeed Altitude Reporting Facility
EDT Latitude Longitude Course Direction KTS MPH feet Rate Location/Type
11:11AM 26.7350 -79.5269 125° Southeast 165 190 6,000  Level Miami Center
11:12AM 26.7461 -79.4783 76° East 160 184 7,000 300 Climbing Miami Center
11:13AM 26.7325 -79.4339 109° East 143 165 6,600  Descending Miami Center
11:14AM 26.7142 -79.3964 119° Southeast 141 162 7,000 360 Climbing Miami Center
11:15AM 26.6939 -79.3586 121° Southeast 131 151 7,400 300 Climbing Miami Center
11:16AM 26.6800 -79.3233 114° Southeast 136 157 7,700 300 Climbing Miami Center
11:17AM 25.7942 -79.1985 125° Southeast  Level Estimated
11:17AM 26.6511 -79.2972 141° Southeast 129 148 8,100  Level Miami Center
11:18AM 26.6242 -79.2806 151° Southeast 123 142 8,500 300 Climbing Miami Center
11:19AM 26.5953 -79.2614 149° Southeast 123 142 8,800 180 Climbing Miami Center
11:20AM 26.5644 -79.2397 148° Southeast 123 142 8,900 60 Climbing Miami Center
11:21AM 26.5333 -79.2158 146° Southeast 130 150 9,000  Climbing Miami Center
11:22AM 26.5006 -79.1850 140° Southeast 136 157 9,000 -60 Level Miami Center
11:23AM 26.4719 -79.1497 132° Southeast 149 171 8,900 -60 Descending Miami Center
11:24AM 26.4472 -79.1144 128° Southeast 149 171 8,900  Level Miami Center
11:25AM 26.4186 -79.0836 136° Southeast 144 166 8,900  Level Miami Center
11:26AM 26.3878 -79.0508 136° Southeast 144 166 8,900  Level Miami Center
11:27AM 26.3611 -79.0178 132° Southeast 144 166 8,900  Level Miami Center
11:28AM 26.3281 -78.9822 136° Southeast 151 174 8,900  Level Miami Center
11:29AM 26.3014 -78.9472 130° Southeast 145 167 8,900  Level Miami Center
11:30AM 26.2747 -78.9164 134° Southeast 146 168 8,900  Level Miami Center
11:31AM 26.2458 -78.8836 134° Southeast 141 162 8,900  Level Miami Center
11:32AM 26.2172 -78.8483 132° Southeast 147 169 8,900  Level Miami Center
11:33AM 26.1864 -78.8131 134° Southeast 147 169 8,900  Level Miami Center
11:34AM 26.1575 -78.7803 134° Southeast 147 169 8,900  Level Miami Center
11:35AM 26.1267 -78.7472 136° Southeast 147 169 8,900  Level Miami Center
11:36AM 26.1019 -78.7144 130° Southeast 141 162 8,900  Level Miami Center
11:37AM 26.0711 -78.6794 134° Southeast 146 168 8,900  Level Miami Center
11:38AM 26.0403 -78.6372 129° Southeast 153 176 8,900  Level Miami Center
11:39AM 26.0114 -78.6114 141° Southeast 153 176 8,900  Level Miami Center
11:40AM 25.9783 -78.5808 140° Southeast 153 176 8,900  Level Miami Center
11:41AM 25.9514 -78.5481 132° Southeast 153 176 8,900  Level Miami Center
11:42AM 25.9206 -78.5153 136° Southeast 153 176 9,000  Climbing Miami Center
11:43AM 25.8917 -78.4828 135° Southeast 148 170 8,900 -60 Descending Miami Center
11:44AM 25.8628 -78.4475 132° Southeast 143 165 8,900  Level Miami Center
11:45AM 25.8358 -78.4150 133° Southeast 143 165 8,900  Level Miami Center
11:46AM 25.8069 -78.3844 136° Southeast 143 165 8,900  Level Miami Center
11:47AM 25.7781 -78.3519 135° Southeast 148 170 8,900  Level Miami Center
11:48AM 25.7511 -78.3147 129° Southeast 148 170 8,900  Level Miami Center
11:49AM 25.7222 -78.2819 134° Southeast 143 165 9,000  Climbing Miami Center
11:50AM 25.6911 -78.2517 139° Southeast 143 165 9,000  Level Miami Center
11:51AM 25.6622 -78.2192 135° Southeast 143 165 9,000  Level Miami Center
11:52AM 25.6356 -78.1864 132° Southeast 143 165 9,000  Level Miami Center
11:53AM 25.6064 -78.1539 135° Southeast 143 165 9,000  Level Miami Center
11:54AM 25.5775 -78.1214 135° Southeast 143 165 9,000  Level Miami Center
11:55AM 25.5506 -78.0864 130° Southeast 143 165 9,000  Level Miami Center
11:57AM 25.4969 -78.0192 131° Southeast 143 165 9,000  Level Miami Center
11:58AM 25.4658 -77.9867 137° Southeast 143 165 9,000  Level Miami Center
11:59AM 25.4347 -77.9542 137° Southeast 143 165 9,000  Level Miami Center
12:01PM 25.3940 -77.9067 134° Southeast  Level FlightAware Approximate
12:08PM 25.1935 -77.6772 134° Southeast  Level FlightAware Approximate
12:09PM 25.1647 -77.6446 134° Southeast  Level FlightAware Approximate
12:10PM 25.1359 -77.6120 134° Southeast  Level FlightAware Approximate
12:11PM 25.1070 -77.5795 134° Southeast  Level FlightAware Approximate
12:12PM 25.0782 -77.5470 134° Southeast  Level FlightAware Approximate
12:13PM 25.0494 -77.5145 134° Southeast  Level FlightAware Approximate
12:14PM 25.0205 -77.4820 134° Southeast  Level FlightAware Approximate
12:15PM 24.9917 -77.4495 134° Southeast  Level FlightAware Approximate
12:16PM 24.9628 -77.4171 134° Southeast  Level FlightAware Approximate
12:17PM 24.9340 -77.3846 134° Southeast  Level FlightAware Approximate
12:18PM 24.9051 -77.3522 134° Southeast  Level FlightAware Approximate
12:19PM 24.8762 -77.3198 134° Southeast  Level FlightAware Approximate
12:20PM 24.8473 -77.2874 134° Southeast  Level FlightAware Approximate
12:20PM 24.8236 -77.2664 135° Southeast 168 193 9,000  Level Miami Center
12:21PM 24.8184 -77.2550 135° Southeast  Level FlightAware Approximate
12:21PM 24.7925 -77.2367 139° Southeast 163 188 9,000  Level Miami Center
12:22PM 24.7895 -77.2226 135° Southeast  Level FlightAware Approximate
12:22PM 24.7653 -77.2044 133° Southeast 152 175 9,000  Level Miami Center
12:23PM 24.7606 -77.1903 135° Southeast  Level FlightAware Approximate
12:24PM 24.7317 -77.1579 135° Southeast  Level FlightAware Approximate
12:24PM 24.7089 -77.1381 133° Southeast 147 169 9,000  Level Miami Center
12:25PM 24.6778 -77.1058 137° Southeast 147 169 9,000  Level Miami Center
12:26PM 24.6486 -77.0714 133° Southeast 147 169 9,000  Level Miami Center
12:27PM 24.6192 -77.0417 137° Southeast 147 169 9,000 -60 Level Miami Center
12:28PM 24.5900 -77.0075 133° Southeast 147 169 8,900 -180 Descending Miami Center
12:29PM 24.5589 -76.9753 137° Southeast 147 169 8,700 -240 Descending Miami Center
12:30PM 24.5294 -76.9411 133° Southeast 147 169 8,500 -240 Descending Miami Center
12:32PM 24.4669 -76.8703 134° Southeast 147 169 8,100 -240 Descending Miami Center
12:33PM 24.4356 -76.8361 135° Southeast 147 169 7,900 -180 Descending Miami Center
12:34PM 24.4061 -76.8042 135° Southeast 147 169 7,800 -240 Descending Miami Center
12:35PM 24.3747 -76.7697 135° Southeast 147 169 7,500 -300 Descending Miami Center
12:36PM 24.3436 -76.7356 135° Southeast 147 169 7,300 -240 Descending Miami Center
12:37PM 24.3122 -76.7014 135° Southeast 147 169 7,100 -180 Descending Miami Center
12:38PM 24.2828 -76.6697 136° Southeast 147 169 7,000 -60 Descending Miami Center
12:39PM 24.2536 -76.6333 131° Southeast 152 175 7,000  Level Miami Center